Camp Pendleton, California
Current Conditions -  °F | °C
As of 7:32 PM on Saturday 22 Nov 2014 (Local Time) from KNFG Reporting Station
Scattered Clouds Scattered Clouds  
Wind Chill: 59°   Ceiling: Unl
Heat Index: 59°   Visibility: 7mi
Dew Point: 53°   Wind: 0mph
Humidity: 81%   Direction: NA
Pressure: 30.03"   Gusts: NA
Location:  33.3°N, 117.36°W
Report Text: KNFG 230332Z AUTO 00000KT 7SM SCT018 15/12 A3003 RMK AO2 T01500117
Loading
Personal Weather Stations






























Interactive Weather Map New forecast layout! Learn more

10-Day Weather Forecast

Advertisements
Track Severe Weather on mobile